createdAt,value
2018-11-11T06:18:23.746Z,97.50
2018-11-11T07:03:01.756Z,84.00
2018-11-11T07:06:08.324Z,78.20
2018-11-11T07:09:33.742Z,73.90
2018-11-11T07:34:09.043Z,66.50
2018-11-11T07:36:50.842Z,73.40
2018-11-11T08:17:23.301Z,95.30
2018-11-11T08:51:19.838Z,95.20
2018-11-11T08:54:12.692Z,96.60
2018-11-11T08:59:45.805Z,96.80
2018-11-11T09:11:39.046Z,96.70
2018-11-11T09:15:11.205Z,96.50
2018-11-11T10:04:23.690Z,84.40
2018-11-11T10:07:01.195Z,87.20
2018-11-11T10:10:17.544Z,86.00
2018-11-11T10:20:08.359Z,81.50
2018-11-11T10:23:57.991Z,77.90
2018-11-11T10:27:38.666Z,73.80
2018-11-11T10:30:21.091Z,76.50
2018-11-11T10:33:35.475Z,74.50
2018-11-11T10:36:18.687Z,76.00
2018-11-11T10:39:04.417Z,75.30
2018-11-11T10:42:01.302Z,73.80
2018-11-11T10:44:50.005Z,72.40
2018-11-11T10:47:29.670Z,73.30
2018-11-11T10:50:06.472Z,76.60
2018-11-11T10:53:00.889Z,77.30
2018-11-11T10:59:32.542Z,74.20
2018-11-11T11:02:14.617Z,76.00
2018-11-11T11:04:53.376Z,74.80
2018-11-11T11:07:26.829Z,74.40
2018-11-11T11:09:59.752Z,75.60
2018-11-11T11:12:33.924Z,75.00
2018-11-11T11:15:17.083Z,76.90
2018-11-11T11:17:58.856Z,78.00
2018-11-11T11:20:30.962Z,79.80
2018-11-11T11:23:02.746Z,80.50
2018-11-11T11:25:34.954Z,81.60
2018-11-11T11:28:23.062Z,82.80
2018-11-11T11:31:08.607Z,82.00
2018-11-11T11:33:54.703Z,79.90
2018-11-11T11:36:27.235Z,74.10
2018-11-11T11:39:00.271Z,67.80
2018-11-11T11:42:00.836Z,65.60
2018-11-11T11:44:33.279Z,64.80
2018-11-11T11:50:14.416Z,67.40
2018-11-11T11:52:46.710Z,69.50
2018-11-11T11:55:25.166Z,73.00
2018-11-11T12:01:08.099Z,67.90
2018-11-11T12:03:41.229Z,63.50
2018-11-11T12:06:30.057Z,62.10
2018-11-11T12:15:41.777Z,68.20
2018-11-11T12:24:55.380Z,67.60
2018-11-11T12:34:43.923Z,61.70
2018-11-11T12:40:42.593Z,58.20
2018-11-11T12:47:38.784Z,56.10
2018-11-11T13:12:13.093Z,78.10
2018-11-11T13:15:17.556Z,76.90
2018-11-11T13:17:59.020Z,76.50
2018-11-11T13:21:01.130Z,78.70
2018-11-11T14:43:46.430Z,88.60
2018-11-11T14:46:42.626Z,88.10
2018-11-11T14:49:18.837Z,87.80
2018-11-11T14:51:56.345Z,88.60
2018-11-11T14:54:30.895Z,89.10
2018-11-11T14:57:07.794Z,90.00
2018-11-11T14:59:59.795Z,89.90
2018-11-11T15:02:33.794Z,90.40
2018-11-11T15:05:19.850Z,91.00
2018-11-11T15:07:53.795Z,91.20
2018-11-11T15:10:31.599Z,91.30
2018-11-11T15:13:09.179Z,91.60
2018-11-11T15:15:56.094Z,91.70
2018-11-11T15:21:54.515Z,92.10
2018-11-11T15:24:35.185Z,92.40
2018-11-11T15:27:39.594Z,92.70
2018-11-11T15:30:24.027Z,92.80
2018-11-11T15:36:17.652Z,93.30
2018-11-11T15:45:32.775Z,94.00
2018-11-11T15:55:30.122Z,94.00
2018-11-11T15:58:16.139Z,94.10
2018-11-11T16:10:15.052Z,94.50
2018-11-11T17:51:46.795Z,93.90
2018-11-11T18:07:56.077Z,93.80
2018-11-11T18:32:57.231Z,93.70
2018-11-11T18:38:48.983Z,93.90
2018-11-11T18:45:12.027Z,93.70
2018-11-11T19:22:54.830Z,94.00
2018-11-11T19:31:49.679Z,94.40
2018-11-11T19:37:52.875Z,94.70
2018-11-11T21:04:37.546Z,95.10
2018-11-11T21:07:33.143Z,94.70
2018-11-11T21:10:06.413Z,94.80
2018-11-11T21:12:38.992Z,94.90
2018-11-11T21:15:24.835Z,95.10
2018-11-11T21:17:58.901Z,95.10
2018-11-11T21:20:44.140Z,95.20
2018-11-11T21:23:17.202Z,95.10
2018-11-11T21:28:58.821Z,95.00
2018-11-11T21:31:30.972Z,95.00
2018-11-11T21:37:33.385Z,95.20
2018-11-11T21:40:07.690Z,95.10
2018-11-11T21:42:40.796Z,95.00
2018-11-11T21:45:15.114Z,95.10
2018-11-11T21:47:57.954Z,95.10
2018-11-11T21:50:30.711Z,95.00
2018-11-11T21:53:24.567Z,94.90
2018-11-11T21:55:59.514Z,95.00
2018-11-11T21:58:32.021Z,95.00
2018-11-11T22:01:08.774Z,95.00
2018-11-11T22:03:42.799Z,94.90
2018-11-11T22:06:16.324Z,94.90
2018-11-11T22:08:48.639Z,94.70
2018-11-11T22:11:20.932Z,94.80
2018-11-11T22:14:00.325Z,94.90
2018-11-11T22:16:32.012Z,94.80
2018-11-11T22:19:04.074Z,94.90
